createdAt,value
2022-12-18T00:01:24.481Z,23.33
2022-12-18T00:06:28.236Z,23.13
2022-12-18T00:11:33.835Z,22.52
2022-12-18T00:16:41.040Z,21.23
2022-12-18T00:21:44.142Z,21.15
2022-12-18T00:26:46.284Z,23.98
2022-12-18T00:31:48.117Z,24.45
2022-12-18T00:36:52.791Z,20.58
2022-12-18T00:42:12.593Z,22.63
2022-12-18T00:47:14.603Z,20.67
2022-12-18T00:52:16.010Z,25.75
2022-12-18T00:57:17.562Z,22.10
2022-12-18T01:02:19.099Z,21.70
2022-12-18T01:07:20.662Z,23.55
2022-12-18T01:12:22.135Z,21.10
2022-12-18T01:17:23.550Z,22.60
2022-12-18T01:22:25.133Z,21.85
2022-12-18T01:27:26.953Z,20.50
2022-12-18T01:32:31.654Z,21.10
2022-12-18T01:37:33.239Z,20.80
2022-12-18T01:42:34.695Z,18.05
2022-12-18T01:47:47.102Z,20.58
2022-12-18T01:52:51.366Z,19.30
2022-12-18T01:57:56.208Z,18.88
2022-12-18T02:02:57.836Z,19.80
2022-12-18T02:08:01.977Z,19.45
2022-12-18T02:13:11.258Z,18.95
2022-12-18T02:18:19.652Z,18.45
2022-12-18T02:23:24.116Z,18.40
2022-12-18T02:28:31.696Z,19.48
2022-12-18T02:33:36.384Z,19.60
2022-12-18T02:38:38.382Z,16.90
2022-12-18T02:43:40.348Z,17.80
2022-12-18T02:48:41.987Z,19.02
2022-12-18T02:53:53.816Z,17.23
2022-12-18T02:59:14.473Z,17.38
2022-12-18T03:04:31.316Z,19.55
2022-12-18T03:09:36.665Z,18.10
2022-12-18T03:14:39.309Z,18.10
2022-12-18T03:19:43.181Z,16.67
2022-12-18T03:24:46.835Z,15.63
2022-12-18T03:30:24.482Z,17.00
2022-12-18T03:35:32.420Z,16.45
2022-12-18T03:40:49.211Z,14.90
2022-12-18T03:46:08.629Z,17.00
2022-12-18T03:51:23.921Z,14.18
2022-12-18T03:56:30.778Z,15.73
2022-12-18T04:01:40.894Z,17.55
2022-12-18T04:06:44.644Z,14.98
2022-12-18T04:11:47.506Z,13.98
2022-12-18T04:16:49.057Z,13.48
2022-12-18T04:21:50.521Z,12.85
2022-12-18T04:26:51.964Z,14.60
2022-12-18T04:31:53.434Z,13.57
2022-12-18T04:36:54.831Z,13.20
2022-12-18T04:41:56.326Z,12.68
2022-12-18T04:46:57.991Z,12.48
2022-12-18T04:51:59.501Z,12.15
2022-12-18T04:57:00.931Z,12.32
2022-12-18T05:02:02.423Z,12.57
2022-12-18T05:07:03.892Z,12.05
2022-12-18T05:12:05.426Z,11.95
2022-12-18T05:17:06.898Z,11.65
2022-12-18T05:22:08.510Z,12.95
2022-12-18T05:27:10.138Z,12.20
2022-12-18T05:32:11.586Z,11.38
2022-12-18T05:37:13.711Z,11.82
2022-12-18T05:42:15.333Z,11.20
2022-12-18T05:47:16.996Z,9.50
2022-12-18T05:52:18.453Z,10.38
2022-12-18T05:57:19.892Z,10.63
2022-12-18T06:02:22.094Z,11.75
2022-12-18T06:07:23.690Z,12.32
2022-12-18T06:12:25.179Z,12.02
2022-12-18T06:17:33.380Z,10.95
2022-12-18T06:22:35.911Z,10.32
2022-12-18T06:27:37.333Z,11.35
2022-12-18T06:32:38.980Z,10.38
2022-12-18T06:37:40.397Z,10.10
2022-12-18T06:42:41.836Z,13.15
2022-12-18T06:47:43.431Z,11.70
2022-12-18T06:52:44.923Z,12.40
2022-12-18T06:57:46.478Z,12.50
2022-12-18T07:02:49.050Z,13.48
2022-12-18T07:07:50.594Z,12.95
2022-12-18T07:12:52.016Z,11.07
2022-12-18T07:17:53.421Z,12.00
2022-12-18T07:22:56.461Z,15.40
2022-12-18T07:27:58.105Z,16.40
2022-12-18T07:32:59.966Z,16.48
2022-12-18T07:38:02.928Z,11.52
2022-12-18T07:43:04.628Z,14.48
2022-12-18T07:48:06.064Z,13.98
2022-12-18T07:53:07.474Z,14.57
2022-12-18T07:58:09.236Z,13.88
2022-12-18T08:03:10.729Z,12.95
2022-12-18T08:08:13.763Z,11.50
2022-12-18T08:13:15.124Z,12.93
2022-12-18T08:18:16.547Z,13.25
2022-12-18T08:23:17.985Z,13.88
2022-12-18T08:28:19.391Z,13.18
2022-12-18T08:33:20.803Z,13.02
2022-12-18T08:38:22.228Z,12.32
2022-12-18T08:43:42.738Z,11.73
2022-12-18T08:48:44.683Z,11.48
2022-12-18T08:53:46.611Z,12.90
2022-12-18T08:58:48.079Z,12.73
2022-12-18T09:03:50.559Z,17.42
2022-12-18T09:08:52.016Z,11.35
2022-12-18T09:13:55.198Z,12.25
2022-12-18T09:19:00.659Z,11.07
2022-12-18T09:24:02.184Z,11.75
2022-12-18T09:29:04.212Z,8.02
2022-12-18T09:34:07.020Z,11.20
2022-12-18T09:39:09.056Z,11.43
2022-12-18T09:44:37.764Z,10.27
2022-12-18T09:49:48.376Z,11.32
2022-12-18T09:54:56.165Z,8.10
2022-12-18T10:00:02.893Z,9.68
2022-12-18T10:05:07.906Z,9.90
2022-12-18T10:10:24.570Z,9.20
2022-12-18T10:15:35.499Z,10.63
2022-12-18T10:20:46.240Z,8.55
2022-12-18T10:26:03.011Z,10.07
2022-12-18T10:31:07.398Z,9.48
2022-12-18T10:36:09.107Z,10.90
2022-12-18T10:41:24.177Z,12.55
2022-12-18T10:46:25.847Z,11.73
2022-12-18T10:51:35.163Z,9.43
2022-12-18T10:56:40.056Z,11.40
2022-12-18T11:02:01.093Z,10.15
2022-12-18T11:07:08.541Z,15.73
2022-12-18T11:12:24.914Z,12.75
2022-12-18T11:17:31.157Z,15.50
2022-12-18T11:22:36.681Z,10.73
2022-12-18T11:27:39.478Z,8.75
2022-12-18T11:32:46.253Z,9.32
2022-12-18T11:37:58.582Z,9.15
2022-12-18T11:43:30.672Z,9.60
2022-12-18T11:48:46.054Z,11.13
2022-12-18T11:53:48.756Z,8.85
2022-12-18T11:59:14.539Z,8.95
2022-12-18T12:04:28.262Z,10.65
2022-12-18T12:09:46.957Z,10.63
2022-12-18T12:15:17.914Z,12.52
2022-12-18T12:20:27.688Z,16.67
2022-12-18T12:25:42.459Z,10.02
2022-12-18T12:30:55.144Z,12.13
2022-12-18T12:36:17.685Z,13.88
2022-12-18T12:41:43.319Z,12.07
2022-12-18T12:46:46.666Z,11.60
2022-12-18T12:51:57.660Z,17.90
2022-12-18T12:57:13.187Z,14.57
2022-12-18T13:02:31.909Z,11.80
2022-12-18T13:07:39.919Z,10.38
2022-12-18T13:12:59.367Z,11.10
2022-12-18T13:18:18.062Z,11.23
2022-12-18T13:23:25.359Z,11.23
2022-12-18T13:28:46.163Z,12.10
2022-12-18T13:34:23.893Z,13.18
2022-12-18T13:39:18.445Z,11.43
2022-12-18T13:44:38.549Z,7.68
2022-12-18T13:49:44.844Z,10.90
2022-12-18T13:54:56.153Z,12.13
2022-12-18T13:59:58.939Z,12.00
2022-12-18T14:05:00.414Z,8.77
2022-12-18T14:10:26.104Z,11.70
2022-12-18T14:15:28.038Z,11.80
2022-12-18T14:20:33.075Z,15.57
2022-12-18T14:25:34.414Z,11.23
2022-12-18T14:30:39.003Z,10.68
2022-12-18T14:35:43.924Z,11.88
2022-12-18T14:40:45.407Z,12.82
2022-12-18T14:45:47.575Z,10.68
2022-12-18T14:51:00.960Z,11.30
2022-12-18T14:56:03.789Z,11.20
2022-12-18T15:01:05.639Z,12.32
2022-12-18T15:06:18.562Z,11.13
2022-12-18T15:11:31.214Z,14.30
2022-12-18T15:16:32.801Z,13.68
2022-12-18T15:21:36.710Z,14.40
2022-12-18T15:26:39.333Z,14.50
2022-12-18T15:31:42.689Z,14.07
2022-12-18T15:36:45.744Z,13.93
2022-12-18T15:42:05.957Z,12.02
2022-12-18T15:47:14.337Z,13.98
2022-12-18T15:52:26.760Z,11.65
2022-12-18T15:57:32.932Z,18.42
2022-12-18T16:02:37.067Z,15.98
2022-12-18T16:07:39.868Z,16.90
2022-12-18T16:12:42.917Z,14.60
2022-12-18T16:17:48.055Z,14.48
2022-12-18T16:22:50.308Z,17.38
2022-12-18T16:27:52.998Z,17.13
2022-12-18T16:32:55.338Z,16.45
2022-12-18T16:37:56.838Z,16.70
2022-12-18T16:42:58.234Z,23.45
2022-12-18T16:47:59.690Z,17.45
2022-12-18T16:53:01.091Z,14.10
2022-12-18T16:58:02.523Z,17.58
2022-12-18T17:03:04.328Z,15.23
2022-12-18T17:08:06.309Z,16.38
2022-12-18T17:13:08.083Z,14.70
2022-12-18T17:18:09.517Z,16.50
2022-12-18T17:23:11.064Z,16.45
2022-12-18T17:28:13.148Z,14.75
2022-12-18T17:33:17.251Z,15.75
2022-12-18T17:38:18.882Z,16.20
2022-12-18T17:43:20.275Z,16.08
2022-12-18T17:48:22.245Z,16.02
2022-12-18T17:53:23.639Z,17.05
2022-12-18T17:58:25.108Z,16.55
2022-12-18T18:03:29.216Z,17.38
2022-12-18T18:08:32.009Z,17.60
2022-12-18T18:13:52.419Z,19.40
2022-12-18T18:18:57.248Z,20.23
2022-12-18T18:24:03.094Z,21.70
2022-12-18T18:29:09.917Z,21.42
2022-12-18T18:34:16.539Z,24.63
2022-12-18T18:39:18.569Z,20.30
2022-12-18T18:44:24.427Z,20.30
2022-12-18T18:49:28.353Z,19.45
2022-12-18T18:54:31.013Z,16.80
2022-12-18T18:59:32.444Z,19.67
2022-12-18T19:04:34.399Z,18.33
2022-12-18T19:09:36.332Z,16.83
2022-12-18T19:14:37.846Z,18.38
2022-12-18T19:19:39.451Z,19.80
2022-12-18T19:24:41.191Z,16.90
2022-12-18T19:29:45.423Z,18.73
2022-12-18T19:34:47.503Z,18.90
2022-12-18T19:39:49.842Z,15.40
2022-12-18T19:44:51.278Z,18.67
2022-12-18T19:49:55.333Z,17.00
2022-12-18T19:54:57.936Z,22.83
2022-12-18T19:59:59.988Z,24.90
2022-12-18T20:05:01.685Z,21.75
2022-12-18T20:10:08.910Z,18.83
2022-12-18T20:15:11.058Z,18.00
2022-12-18T20:20:12.642Z,19.92
2022-12-18T20:25:17.773Z,19.05
2022-12-18T20:30:19.251Z,19.00
2022-12-18T20:35:20.780Z,20.35
2022-12-18T20:40:23.189Z,20.05
2022-12-18T20:45:24.843Z,19.33
2022-12-18T20:50:27.557Z,17.70
2022-12-18T20:55:31.829Z,18.88
2022-12-18T21:00:34.873Z,19.40
2022-12-18T21:05:41.471Z,18.60
2022-12-18T21:10:47.010Z,18.95
2022-12-18T21:15:57.674Z,20.67
2022-12-18T21:20:59.209Z,18.77
2022-12-18T21:26:21.941Z,18.20
2022-12-18T21:31:25.840Z,20.40
2022-12-18T21:36:31.947Z,20.60
2022-12-18T21:41:55.407Z,18.50
2022-12-18T21:47:08.081Z,19.50
2022-12-18T21:52:16.820Z,19.38
2022-12-18T21:57:19.754Z,15.73
2022-12-18T22:02:27.083Z,21.23
2022-12-18T22:07:29.310Z,21.60
2022-12-18T22:12:43.618Z,20.83
2022-12-18T22:17:46.784Z,22.40
2022-12-18T22:22:51.868Z,20.90
2022-12-18T22:28:12.120Z,19.23
2022-12-18T22:33:13.808Z,19.50
2022-12-18T22:38:22.511Z,22.20
2022-12-18T22:43:24.073Z,23.85
2022-12-18T22:48:31.698Z,23.77
2022-12-18T22:53:42.954Z,21.40
2022-12-18T22:58:50.461Z,23.42
2022-12-18T23:03:53.067Z,22.10
2022-12-18T23:09:00.638Z,21.17
2022-12-18T23:14:03.153Z,21.85
2022-12-18T23:19:06.086Z,24.20
2022-12-18T23:24:07.912Z,21.40
2022-12-18T23:29:09.394Z,22.83
2022-12-18T23:34:12.872Z,21.90
2022-12-18T23:39:17.436Z,24.50
2022-12-18T23:44:30.590Z,22.65
2022-12-18T23:49:32.006Z,23.23
2022-12-18T23:54:33.923Z,24.33
2022-12-18T23:59:35.410Z,23.48
